CheckWX is a tool to help pilots better visualize weather data.  It is not intended as a substitute for an official pre-flight weather briefing.

12:23:31 UTC

KASX METAR
John F Kennedy Memorial Airport
Ashland, Wisconsin, USA
Current

24 mins ago

KASX 231200Z AUTO 05006KT 1SM -SN BR BKN003 OVC013 M01/M01 A3003 RMK AO2 P0000 T10061011
Observed
Jan-23 @ 12:00 UTC
Wind
  • 050° at 6 KTS
Visibility
1 SM
Flight Rules
LIFR
Conditions
Light Snow, Mist
Cloud Levels
  • Broken at 300' AGL
  • Overcast at 1,300' AGL
Temperature
-1°C / 30°F
Dewpoint
-1°C / 30°F
Humidity
100%
Altimeter
30.03" Hg
Pressure
1016.92 hPa
Current Rain
0.01"
Previous

31 mins ago

KASX 231153Z AUTO 05006KT 1SM -SN BR SCT004 OVC013 M01/M01 A3002 RMK AO2 SLP177 P0000 60002 70002 T10061011 11006 21011 53009
Observed
Jan-23 @ 11:53 UTC
Wind
  • 050° at 6 KTS
Visibility
1 SM
Flight Rules
IFR
Conditions
Light Snow, Mist
Cloud Levels
  • Scattered at 400' AGL
  • Overcast at 1,300' AGL
Temperature
-1°C / 30°F
Dewpoint
-1°C / 30°F
Humidity
100%
Altimeter
30.02" Hg
Pressure
1016.62 hPa
Current Rain
0.01"
24 Hour Rain
0.02"
Previous

39 mins ago

KASX 231145Z AUTO 05005KT 1SM -SN BR FEW004 BKN013 OVC021 M01/M01 A3002 RMK AO2 P0000 T10061011
Observed
Jan-23 @ 11:45 UTC
Wind
  • 050° at 5 KTS
Visibility
1 SM
Flight Rules
IFR
Conditions
Light Snow, Mist
Cloud Levels
  • Few at 400' AGL
  • Broken at 1,300' AGL
  • Overcast at 2,100' AGL
Temperature
-1°C / 30°F
Dewpoint
-1°C / 30°F
Humidity
100%
Altimeter
30.02" Hg
Pressure
1016.62 hPa
Current Rain
0.01"